createdAt,value
2024-01-25T00:00:00.464Z,100712.13
2024-01-25T00:00:32.513Z,100729.16
2024-01-25T00:01:04.922Z,100720.47
2024-01-25T00:01:37.214Z,100704.97
2024-01-25T00:02:09.507Z,100712.75
2024-01-25T00:02:41.625Z,100707.97
2024-01-25T00:03:13.644Z,100696.47
2024-01-25T00:03:45.780Z,100718.69
2024-01-25T00:04:17.937Z,100702.53
2024-01-25T00:04:50.035Z,100717.22
2024-01-25T00:05:22.521Z,100698.84
2024-01-25T00:05:54.640Z,100745.72
2024-01-25T00:06:26.791Z,100706.88
2024-01-25T00:06:59.254Z,100723.72
2024-01-25T00:07:31.502Z,100718.91
2024-01-25T00:08:03.912Z,100726.09
2024-01-25T00:08:36.182Z,100703.75
2024-01-25T00:09:08.529Z,100715.22
2024-01-25T00:09:40.589Z,100722.28
2024-01-25T00:10:12.694Z,100706.63
2024-01-25T00:10:44.893Z,100690.38
2024-01-25T00:11:16.858Z,100716.91
2024-01-25T00:11:48.864Z,100721.53
2024-01-25T00:12:21.266Z,100710.06
2024-01-25T00:12:54.703Z,100705.50
2024-01-25T00:13:26.791Z,100700.50
2024-01-25T00:13:58.969Z,100717.81
2024-01-25T00:14:30.970Z,100708.16
2024-01-25T00:15:03.531Z,100715.31
2024-01-25T00:15:35.514Z,100697.72
2024-01-25T00:16:07.797Z,100697.63
2024-01-25T00:16:42.170Z,100706.34
2024-01-25T00:17:14.208Z,100708.63
2024-01-25T00:17:46.273Z,100721.44
2024-01-25T00:18:18.281Z,100695.84
2024-01-25T00:18:50.614Z,100708.81
2024-01-25T00:19:23.648Z,100688.38
2024-01-25T00:19:55.784Z,100702.78
2024-01-25T00:20:28.058Z,100729.78
2024-01-25T00:21:00.171Z,100704.09
2024-01-25T00:21:32.239Z,100715.59
2024-01-25T00:22:04.708Z,100704.06
2024-01-25T00:22:36.742Z,100706.59
2024-01-25T00:23:08.829Z,100708.72
2024-01-25T00:23:40.824Z,100715.19
2024-01-25T00:24:13.662Z,100720.06
2024-01-25T00:24:45.865Z,100705.34
2024-01-25T00:25:17.986Z,100718.38
2024-01-25T00:25:50.062Z,100709.78
2024-01-25T00:26:22.362Z,100687.81
2024-01-25T00:26:54.381Z,100717.03
2024-01-25T00:27:26.394Z,100703.81
2024-01-25T00:28:00.017Z,100719.47
2024-01-25T00:28:32.144Z,100708.81
2024-01-25T00:29:04.838Z,100718.50
2024-01-25T00:29:37.940Z,100709.91
2024-01-25T00:30:11.016Z,100702.25
2024-01-25T00:30:43.060Z,100716.75
2024-01-25T00:31:15.187Z,100718.41
2024-01-25T00:31:47.265Z,100719.50
2024-01-25T00:32:19.280Z,100720.91
2024-01-25T00:32:51.332Z,100729.13
2024-01-25T00:33:23.868Z,100721.53
2024-01-25T00:33:56.673Z,100713.28
2024-01-25T00:34:29.482Z,100719.41
2024-01-25T00:35:02.459Z,100706.13
2024-01-25T00:35:35.391Z,100675.31
2024-01-25T00:36:08.807Z,100718.56
2024-01-25T00:36:41.509Z,100736.53
2024-01-25T00:37:14.173Z,100717.09
2024-01-25T00:37:46.745Z,100740.00
2024-01-25T00:38:19.362Z,100731.53
2024-01-25T00:38:52.024Z,100736.34
2024-01-25T00:39:24.441Z,100708.97
2024-01-25T00:39:57.057Z,100737.03
2024-01-25T00:40:29.706Z,100738.56
2024-01-25T00:41:02.530Z,100735.94
2024-01-25T00:41:35.867Z,100746.19
2024-01-25T00:42:08.896Z,100718.13
2024-01-25T00:42:43.645Z,100714.22
2024-01-25T00:43:18.221Z,100754.06
2024-01-25T00:43:50.894Z,100737.13
2024-01-25T00:44:23.612Z,100741.16
2024-01-25T00:44:56.237Z,100737.03
2024-01-25T00:45:28.769Z,100714.41
2024-01-25T00:46:01.434Z,100743.13
2024-01-25T00:46:33.961Z,100760.16
2024-01-25T00:47:06.747Z,100742.34
2024-01-25T00:47:39.458Z,100739.31
2024-01-25T00:48:13.229Z,100742.59
2024-01-25T00:48:46.018Z,100726.50
2024-01-25T00:49:18.965Z,100739.50
2024-01-25T00:49:51.912Z,100736.88
2024-01-25T00:50:25.205Z,100737.38
2024-01-25T00:50:58.270Z,100738.97
2024-01-25T00:51:31.104Z,100748.38
2024-01-25T00:52:04.538Z,100754.53
2024-01-25T00:52:37.069Z,100763.25
2024-01-25T00:53:10.160Z,100734.44
2024-01-25T00:53:42.590Z,100744.25
2024-01-25T00:54:15.295Z,100749.84
2024-01-25T00:54:47.750Z,100741.53
2024-01-25T00:55:20.592Z,100756.81
2024-01-25T00:55:53.278Z,100736.84
2024-01-25T00:56:25.893Z,100745.56
2024-01-25T00:56:58.558Z,100747.41
2024-01-25T00:57:31.211Z,100742.06
2024-01-25T00:58:03.943Z,100751.28
2024-01-25T00:58:38.032Z,100746.59
2024-01-25T00:59:10.546Z,100726.53
2024-01-25T00:59:43.086Z,100731.38
2024-01-25T01:00:16.034Z,100734.22
2024-01-25T01:00:48.674Z,100732.06
2024-01-25T01:01:22.931Z,100737.63
2024-01-25T01:01:59.402Z,100738.59
2024-01-25T01:02:35.536Z,100726.63
2024-01-25T01:03:08.189Z,100726.91
2024-01-25T01:03:41.137Z,100730.38
2024-01-25T01:04:13.938Z,100735.53
2024-01-25T01:04:48.189Z,100732.28
2024-01-25T01:05:21.710Z,100741.44
2024-01-25T01:05:54.569Z,100724.91
2024-01-25T01:06:30.442Z,100715.69
2024-01-25T01:07:03.133Z,100743.56
2024-01-25T01:07:35.858Z,100736.13
2024-01-25T01:08:09.201Z,100735.69
2024-01-25T01:08:44.080Z,100738.22
2024-01-25T01:09:16.469Z,100729.16
2024-01-25T01:09:48.550Z,100723.34
2024-01-25T01:10:20.740Z,100725.59
2024-01-25T01:10:52.840Z,100743.78
2024-01-25T01:11:25.057Z,100721.44
2024-01-25T01:11:57.121Z,100734.78
2024-01-25T01:12:29.289Z,100731.94
2024-01-25T01:13:01.423Z,100727.22
2024-01-25T01:13:33.463Z,100730.59
2024-01-25T01:14:06.858Z,100727.31
2024-01-25T01:14:38.949Z,100726.13
2024-01-25T01:15:11.025Z,100717.41
2024-01-25T01:15:43.106Z,100716.56
2024-01-25T01:16:15.306Z,100717.84
2024-01-25T01:16:47.308Z,100726.00
2024-01-25T01:17:19.371Z,100733.19
2024-01-25T01:17:51.520Z,100718.09
2024-01-25T01:18:23.671Z,100741.34
2024-01-25T01:18:55.977Z,100733.06
2024-01-25T01:19:28.177Z,100718.25
2024-01-25T01:20:00.722Z,100717.53
2024-01-25T01:20:33.453Z,100726.97
2024-01-25T01:21:05.838Z,100721.31
2024-01-25T01:21:37.967Z,100715.00
2024-01-25T01:22:10.192Z,100715.47
2024-01-25T01:22:42.255Z,100724.41
2024-01-25T01:23:14.326Z,100700.78
2024-01-25T01:23:46.327Z,100696.53
2024-01-25T01:24:18.375Z,100714.06
2024-01-25T01:24:50.400Z,100710.50
2024-01-25T01:25:22.595Z,100704.03
2024-01-25T01:25:54.769Z,100714.81
2024-01-25T01:26:26.765Z,100715.69
2024-01-25T01:26:58.805Z,100725.59
2024-01-25T01:27:30.889Z,100703.50
2024-01-25T01:28:02.982Z,100698.34
2024-01-25T01:28:34.940Z,100693.66
2024-01-25T01:29:08.449Z,100707.97
2024-01-25T01:29:40.449Z,100711.91
2024-01-25T01:30:12.985Z,100679.22
2024-01-25T01:30:45.060Z,100715.13
2024-01-25T01:31:17.637Z,100715.50
2024-01-25T01:31:50.121Z,100705.84
2024-01-25T01:32:23.271Z,100710.78
2024-01-25T01:32:55.514Z,100697.41
2024-01-25T01:33:27.856Z,100723.91
2024-01-25T01:34:00.174Z,100707.47
2024-01-25T01:34:32.774Z,100698.84
2024-01-25T01:35:07.183Z,100703.72
2024-01-25T01:35:39.414Z,100719.50
2024-01-25T01:36:11.407Z,100686.63
2024-01-25T01:36:43.500Z,100694.84
2024-01-25T01:37:15.638Z,100697.78
2024-01-25T01:37:48.023Z,100685.44
2024-01-25T01:38:20.029Z,100702.28
2024-01-25T01:38:52.083Z,100678.84
2024-01-25T01:39:24.043Z,100690.38
2024-01-25T01:39:56.198Z,100686.06
2024-01-25T01:40:28.488Z,100688.09
2024-01-25T01:41:00.535Z,100680.13
2024-01-25T01:41:32.712Z,100677.84
2024-01-25T01:42:04.909Z,100689.63
2024-01-25T01:42:36.901Z,100681.03
2024-01-25T01:43:18.626Z,100690.38
2024-01-25T01:43:53.716Z,100700.38
2024-01-25T01:44:27.069Z,100694.88
2024-01-25T01:44:59.074Z,100706.72
2024-01-25T01:45:31.229Z,100690.72
2024-01-25T01:46:10.625Z,100685.72
2024-01-25T01:46:43.149Z,100692.66
2024-01-25T01:47:15.302Z,100708.84
2024-01-25T01:47:47.529Z,100701.72
2024-01-25T01:48:20.251Z,100706.50
2024-01-25T01:48:52.834Z,100713.19
2024-01-25T01:49:25.410Z,100697.72
2024-01-25T01:49:58.146Z,100706.31
2024-01-25T01:50:30.534Z,100680.75
2024-01-25T01:51:03.056Z,100710.75
2024-01-25T01:51:36.996Z,100716.66
2024-01-25T01:52:09.393Z,100689.47
2024-01-25T01:52:42.116Z,100708.69
2024-01-25T01:53:14.227Z,100707.63
2024-01-25T01:53:47.696Z,100700.66
2024-01-25T01:54:20.265Z,100709.88
2024-01-25T01:54:52.676Z,100720.03
2024-01-25T01:55:24.889Z,100716.44
2024-01-25T01:55:57.074Z,100703.88
2024-01-25T01:56:29.894Z,100720.25
2024-01-25T01:57:03.318Z,100705.78
2024-01-25T01:57:36.150Z,100701.97
2024-01-25T01:58:10.256Z,100702.31
2024-01-25T01:58:43.073Z,100712.31
2024-01-25T01:59:17.019Z,100708.50
2024-01-25T01:59:50.742Z,100706.34
2024-01-25T02:00:22.943Z,100697.13
2024-01-25T02:00:56.517Z,100709.75
2024-01-25T02:01:28.975Z,100720.72
2024-01-25T02:02:01.354Z,100702.72
2024-01-25T02:02:33.464Z,100717.34
2024-01-25T02:03:06.068Z,100706.84
2024-01-25T02:03:38.296Z,100705.94
2024-01-25T02:04:10.491Z,100691.38
2024-01-25T02:04:44.505Z,100708.28
2024-01-25T02:05:17.153Z,100691.38
2024-01-25T02:05:49.315Z,100693.88
2024-01-25T02:06:22.261Z,100706.50
2024-01-25T02:06:54.560Z,100701.25
2024-01-25T02:07:26.846Z,100715.22
2024-01-25T02:07:59.013Z,100703.03
2024-01-25T02:08:31.451Z,100706.19
2024-01-25T02:09:04.026Z,100721.56
2024-01-25T02:09:36.233Z,100697.19
2024-01-25T02:10:09.583Z,100694.47
2024-01-25T02:10:41.722Z,100701.38
2024-01-25T02:11:13.694Z,100705.66
2024-01-25T02:11:45.729Z,100698.75
2024-01-25T02:12:17.761Z,100699.59
2024-01-25T02:12:49.872Z,100683.72
2024-01-25T02:13:23.006Z,100704.72
2024-01-25T02:13:55.372Z,100713.06
2024-01-25T02:14:27.424Z,100699.19
2024-01-25T02:15:01.547Z,100704.63
2024-01-25T02:15:33.781Z,100687.56
2024-01-25T02:16:06.523Z,100697.47
2024-01-25T02:16:38.814Z,100708.47
2024-01-25T02:17:10.911Z,100693.50
2024-01-25T02:17:43.808Z,100700.03
2024-01-25T02:18:16.040Z,100723.06
2024-01-25T02:18:49.143Z,100705.63
2024-01-25T02:19:21.599Z,100695.56
2024-01-25T02:19:53.710Z,100701.66
2024-01-25T02:20:27.098Z,100717.25
2024-01-25T02:20:59.191Z,100704.13
2024-01-25T02:21:31.368Z,100707.34
2024-01-25T02:22:06.561Z,100709.56
2024-01-25T02:22:40.186Z,100704.72
2024-01-25T02:23:12.482Z,100714.06
2024-01-25T02:23:44.526Z,100710.53
2024-01-25T02:24:16.651Z,100685.22
2024-01-25T02:24:48.906Z,100684.16
2024-01-25T02:25:21.195Z,100708.97
2024-01-25T02:25:53.529Z,100695.94
2024-01-25T02:26:25.781Z,100637.72
2024-01-25T02:26:58.722Z,100705.66
2024-01-25T02:27:30.917Z,100706.13
2024-01-25T02:28:03.102Z,100705.03
2024-01-25T02:28:35.098Z,100675.09
2024-01-25T02:29:07.248Z,100708.28
2024-01-25T02:29:39.252Z,100689.69
2024-01-25T02:30:11.731Z,100705.66
2024-01-25T02:30:45.220Z,100706.63
2024-01-25T02:31:17.365Z,100660.56
2024-01-25T02:31:49.541Z,100694.81
2024-01-25T02:32:21.759Z,100692.78
2024-01-25T02:32:53.946Z,100638.69
2024-01-25T02:33:26.099Z,100695.78
2024-01-25T02:33:58.303Z,100676.91
2024-01-25T02:34:30.423Z,100687.50
2024-01-25T02:35:03.193Z,100686.09
2024-01-25T02:35:35.496Z,100688.72
2024-01-25T02:36:07.798Z,100688.09
2024-01-25T02:36:39.901Z,100691.56
2024-01-25T02:37:12.146Z,100690.03
2024-01-25T02:37:45.836Z,100698.00
2024-01-25T02:38:17.782Z,100680.28
2024-01-25T02:38:49.823Z,100675.31
2024-01-25T02:39:21.891Z,100692.66
2024-01-25T02:39:55.216Z,100692.16
2024-01-25T02:40:27.304Z,100678.84
2024-01-25T02:41:00.176Z,100681.22
2024-01-25T02:41:32.881Z,100696.69
2024-01-25T02:42:05.321Z,100678.84
2024-01-25T02:42:37.694Z,100700.69
2024-01-25T02:43:09.826Z,100673.38
2024-01-25T02:43:42.532Z,100682.16
2024-01-25T02:44:14.744Z,100661.56
2024-01-25T02:44:46.778Z,100665.88
2024-01-25T02:45:19.029Z,100692.06
2024-01-25T02:45:51.179Z,100680.09
2024-01-25T02:46:24.649Z,100687.97
2024-01-25T02:46:56.789Z,100668.97
2024-01-25T02:47:29.132Z,100677.91
2024-01-25T02:48:01.510Z,100676.72
2024-01-25T02:48:33.831Z,100668.41
2024-01-25T02:49:06.119Z,100669.34
2024-01-25T02:49:38.922Z,100676.97
2024-01-25T02:50:11.228Z,100664.53
2024-01-25T02:50:43.319Z,100659.78
2024-01-25T02:51:15.513Z,100670.44
2024-01-25T02:51:47.716Z,100682.81
2024-01-25T02:52:20.051Z,100691.53
2024-01-25T02:52:53.685Z,100692.72
2024-01-25T02:53:25.993Z,100683.06
2024-01-25T02:53:57.971Z,100602.25
2024-01-25T02:54:30.191Z,100690.47
2024-01-25T02:55:02.259Z,100693.22
2024-01-25T02:55:34.240Z,100669.84
2024-01-25T02:56:07.326Z,100681.22
2024-01-25T02:56:39.372Z,100689.00
2024-01-25T02:57:11.610Z,100698.69
2024-01-25T02:57:43.677Z,100693.09
2024-01-25T02:58:16.055Z,100701.22
2024-01-25T02:58:48.178Z,100662.41
2024-01-25T02:59:20.166Z,100692.47
2024-01-25T02:59:52.233Z,100670.75
2024-01-25T03:00:24.290Z,100685.06
2024-01-25T03:00:56.617Z,100675.84
2024-01-25T03:01:28.750Z,100695.31
2024-01-25T03:02:01.080Z,100694.78
2024-01-25T03:02:33.247Z,100695.34
2024-01-25T03:03:05.792Z,100691.22
2024-01-25T03:03:38.306Z,100698.75
2024-01-25T03:04:10.702Z,100690.94
2024-01-25T03:04:43.023Z,100680.75
2024-01-25T03:05:15.241Z,100672.50
2024-01-25T03:05:47.529Z,100690.66
2024-01-25T03:06:19.680Z,100706.03
2024-01-25T03:06:51.915Z,100688.59
2024-01-25T03:07:24.155Z,100698.16
2024-01-25T03:07:57.649Z,100708.25
2024-01-25T03:08:29.741Z,100698.03
2024-01-25T03:09:01.824Z,100706.38
2024-01-25T03:09:33.874Z,100711.09
2024-01-25T03:10:07.017Z,100703.66
2024-01-25T03:10:39.124Z,100716.56
2024-01-25T03:11:11.287Z,100716.56
2024-01-25T03:11:43.357Z,100697.97
2024-01-25T03:12:15.413Z,100707.41
2024-01-25T03:12:47.457Z,100705.00
2024-01-25T03:13:22.735Z,100707.97
2024-01-25T03:13:55.039Z,100709.66
2024-01-25T03:14:27.130Z,100712.16
2024-01-25T03:14:59.102Z,100716.69
2024-01-25T03:15:31.323Z,100699.25
2024-01-25T03:16:03.681Z,100692.94
2024-01-25T03:16:35.820Z,100719.91
2024-01-25T03:17:07.884Z,100708.84
2024-01-25T03:17:40.017Z,100712.66
2024-01-25T03:18:12.750Z,100695.69
2024-01-25T03:18:44.951Z,100716.34
2024-01-25T03:19:17.225Z,100706.56
2024-01-25T03:19:49.760Z,100726.47
2024-01-25T03:20:22.074Z,100702.28
2024-01-25T03:20:54.145Z,100702.47
2024-01-25T03:21:26.186Z,100693.34
2024-01-25T03:21:58.240Z,100702.63
2024-01-25T03:22:30.352Z,100708.19
2024-01-25T03:23:04.342Z,100711.75
2024-01-25T03:23:36.302Z,100710.81
2024-01-25T03:24:08.344Z,100695.50
2024-01-25T03:24:40.434Z,100720.19
2024-01-25T03:25:13.086Z,100710.72
2024-01-25T03:25:45.445Z,100709.66
2024-01-25T03:26:17.513Z,100708.28
2024-01-25T03:26:49.679Z,100704.34
2024-01-25T03:27:21.752Z,100701.53
2024-01-25T03:27:54.821Z,100703.66
2024-01-25T03:28:26.944Z,100690.88
2024-01-25T03:28:59.237Z,100699.03
2024-01-25T03:29:31.273Z,100715.75
2024-01-25T03:30:04.130Z,100717.00
2024-01-25T03:30:36.285Z,100716.38
2024-01-25T03:31:08.771Z,100705.09
2024-01-25T03:31:41.078Z,100718.13
2024-01-25T03:32:13.561Z,100699.66
2024-01-25T03:32:47.868Z,100719.50
2024-01-25T03:33:20.091Z,100706.78
2024-01-25T03:33:52.430Z,100696.28
2024-01-25T03:34:24.903Z,100716.25
2024-01-25T03:34:57.458Z,100713.81
2024-01-25T03:35:29.661Z,100722.66
2024-01-25T03:36:03.544Z,100718.22
2024-01-25T03:36:35.657Z,100709.94
2024-01-25T03:37:08.732Z,100717.56
2024-01-25T03:37:40.830Z,100724.00
2024-01-25T03:38:14.361Z,100719.91
2024-01-25T03:38:46.467Z,100712.16
2024-01-25T03:39:18.894Z,100712.59
2024-01-25T03:39:51.271Z,100711.31
2024-01-25T03:40:24.298Z,100691.78
2024-01-25T03:40:56.769Z,100700.97
2024-01-25T03:41:28.755Z,100724.59
2024-01-25T03:42:00.865Z,100711.81
2024-01-25T03:42:33.676Z,100718.97
2024-01-25T03:43:13.937Z,100720.84
2024-01-25T03:43:52.550Z,100714.38
2024-01-25T03:44:24.809Z,100712.38
2024-01-25T03:44:56.905Z,100701.16
2024-01-25T03:45:29.998Z,100698.31
2024-01-25T03:46:02.139Z,100721.94
2024-01-25T03:46:34.200Z,100708.91
2024-01-25T03:47:06.690Z,100700.59
2024-01-25T03:47:39.092Z,100701.53
2024-01-25T03:48:11.152Z,100690.72
2024-01-25T03:48:43.509Z,100696.69
2024-01-25T03:49:15.947Z,100703.22
2024-01-25T03:49:48.263Z,100700.00
2024-01-25T03:50:21.186Z,100714.38
2024-01-25T03:50:53.245Z,100702.94
2024-01-25T03:51:25.362Z,100710.28
2024-01-25T03:51:57.534Z,100711.88
2024-01-25T03:52:29.815Z,100708.56
2024-01-25T03:53:01.892Z,100706.78
2024-01-25T03:53:35.363Z,100727.41
2024-01-25T03:54:07.426Z,100695.91
2024-01-25T03:54:39.462Z,100713.53
2024-01-25T03:55:11.854Z,100704.94
2024-01-25T03:55:43.972Z,100711.03
2024-01-25T03:56:16.393Z,100707.56
2024-01-25T03:56:48.470Z,100696.34
2024-01-25T03:57:20.966Z,100698.00
2024-01-25T03:57:53.140Z,100707.66
2024-01-25T03:58:25.697Z,100703.59
2024-01-25T03:58:57.910Z,100691.31
2024-01-25T03:59:30.035Z,100690.59
2024-01-25T04:00:02.148Z,100717.84
2024-01-25T04:00:43.576Z,100705.78
2024-01-25T04:01:15.873Z,100706.97
2024-01-25T04:01:49.174Z,100706.13
2024-01-25T04:02:21.671Z,100698.47
2024-01-25T04:02:53.816Z,100702.03
2024-01-25T04:03:29.613Z,100713.25
2024-01-25T04:04:04.430Z,100697.19
2024-01-25T04:04:36.634Z,100716.84
2024-01-25T04:05:08.972Z,100708.34
2024-01-25T04:05:41.257Z,100691.63
2024-01-25T04:06:13.786Z,100697.63
2024-01-25T04:06:46.338Z,100714.88
2024-01-25T04:07:18.436Z,100712.16
2024-01-25T04:07:50.563Z,100713.69
2024-01-25T04:08:22.662Z,100697.34
2024-01-25T04:08:56.848Z,100680.28
2024-01-25T04:09:28.894Z,100698.25
2024-01-25T04:10:01.653Z,100683.00
2024-01-25T04:10:34.186Z,100713.25
2024-01-25T04:11:06.218Z,100682.66
2024-01-25T04:11:38.749Z,100683.94
2024-01-25T04:12:10.816Z,100697.31
2024-01-25T04:12:42.822Z,100689.53
2024-01-25T04:13:15.044Z,100689.81
2024-01-25T04:13:50.454Z,100692.53
2024-01-25T04:14:22.730Z,100687.00
2024-01-25T04:14:54.862Z,100693.31
2024-01-25T04:15:26.954Z,100682.59
2024-01-25T04:15:59.076Z,100693.22
2024-01-25T04:16:31.918Z,100691.81
2024-01-25T04:17:04.167Z,100682.56
2024-01-25T04:17:36.394Z,100685.28
2024-01-25T04:18:08.583Z,100698.00
2024-01-25T04:18:40.910Z,100684.19
2024-01-25T04:19:13.523Z,100694.16
2024-01-25T04:19:45.841Z,100702.25
2024-01-25T04:20:18.090Z,100665.69
2024-01-25T04:20:50.577Z,100684.19
2024-01-25T04:21:22.864Z,100689.44
2024-01-25T04:21:57.768Z,100709.34
2024-01-25T04:22:29.968Z,100688.97
2024-01-25T04:23:08.131Z,100686.81
2024-01-25T04:23:40.260Z,100689.97
2024-01-25T04:24:13.667Z,100703.09
2024-01-25T04:24:46.263Z,100685.78
2024-01-25T04:25:20.243Z,100696.19
2024-01-25T04:25:52.424Z,100682.31
2024-01-25T04:26:24.906Z,100703.81
2024-01-25T04:26:56.918Z,100695.84
2024-01-25T04:27:29.360Z,100702.88
2024-01-25T04:28:01.586Z,100701.94
2024-01-25T04:28:33.778Z,100683.34
2024-01-25T04:29:05.907Z,100694.16
2024-01-25T04:29:44.206Z,100691.09
2024-01-25T04:30:17.001Z,100701.94
2024-01-25T04:30:49.120Z,100698.13
2024-01-25T04:31:21.456Z,100717.47
2024-01-25T04:31:53.718Z,100671.88
2024-01-25T04:32:28.866Z,100701.47
2024-01-25T04:33:01.533Z,100679.66
2024-01-25T04:33:34.030Z,100688.75
2024-01-25T04:34:06.438Z,100696.94
2024-01-25T04:34:39.029Z,100717.47
2024-01-25T04:35:11.351Z,100695.38
2024-01-25T04:35:44.553Z,100695.50
2024-01-25T04:36:17.184Z,100693.22
2024-01-25T04:36:49.353Z,100684.91
2024-01-25T04:37:21.805Z,100705.88
2024-01-25T04:37:53.971Z,100707.81
2024-01-25T04:38:26.493Z,100712.53
2024-01-25T04:38:58.544Z,100697.31
2024-01-25T04:39:32.037Z,100699.78
2024-01-25T04:40:08.451Z,100704.00
2024-01-25T04:40:40.577Z,100695.84
2024-01-25T04:41:12.623Z,100693.31
2024-01-25T04:41:44.669Z,100716.22
2024-01-25T04:42:17.218Z,100712.25
2024-01-25T04:42:49.784Z,100719.88
2024-01-25T04:43:22.449Z,100716.00
2024-01-25T04:43:54.726Z,100701.41
2024-01-25T04:44:26.704Z,100712.22
2024-01-25T04:44:59.111Z,100706.72
2024-01-25T04:45:31.506Z,100709.16
2024-01-25T04:46:04.461Z,100712.84
2024-01-25T04:46:36.795Z,100729.78
2024-01-25T04:47:10.374Z,100703.72
2024-01-25T04:47:42.432Z,100695.66
2024-01-25T04:48:15.050Z,100723.25
2024-01-25T04:48:47.569Z,100718.34
2024-01-25T04:49:20.037Z,100715.91
2024-01-25T04:49:52.642Z,100715.06
2024-01-25T04:50:25.365Z,100709.06
2024-01-25T04:50:57.832Z,100718.09
2024-01-25T04:51:30.169Z,100722.31
2024-01-25T04:52:02.959Z,100709.50
2024-01-25T04:52:35.203Z,100698.28
2024-01-25T04:53:07.616Z,100720.56
2024-01-25T04:53:39.904Z,100715.41
2024-01-25T04:54:12.000Z,100709.84
2024-01-25T04:54:45.837Z,100719.59
2024-01-25T04:55:18.510Z,100710.38
2024-01-25T04:55:51.283Z,100722.13
2024-01-25T04:56:24.039Z,100718.88
2024-01-25T04:56:56.543Z,100711.53
2024-01-25T04:57:28.949Z,100719.72
2024-01-25T04:58:01.209Z,100714.56
2024-01-25T04:58:33.327Z,100719.19
2024-01-25T04:59:05.553Z,100718.25
2024-01-25T04:59:37.932Z,100711.09
2024-01-25T05:00:11.106Z,100705.06
2024-01-25T05:00:43.398Z,100718.34
2024-01-25T05:01:15.558Z,100710.59
2024-01-25T05:01:47.927Z,100715.94
2024-01-25T05:02:20.077Z,100711.97
2024-01-25T05:02:52.404Z,100716.38
2024-01-25T05:03:24.412Z,100708.84
2024-01-25T05:03:56.478Z,100715.31
2024-01-25T05:04:30.035Z,100725.28
2024-01-25T05:05:02.315Z,100711.25
2024-01-25T05:05:34.423Z,100714.72
2024-01-25T05:06:06.530Z,100728.34
2024-01-25T05:06:38.683Z,100722.66
2024-01-25T05:07:10.774Z,100717.00
2024-01-25T05:07:43.305Z,100710.00
2024-01-25T05:08:15.568Z,100708.94
2024-01-25T05:08:47.827Z,100714.56
2024-01-25T05:09:19.851Z,100715.56
2024-01-25T05:09:53.382Z,100713.03
2024-01-25T05:10:25.677Z,100706.31
2024-01-25T05:10:57.802Z,100704.63
2024-01-25T05:11:29.899Z,100702.75
2024-01-25T05:12:01.886Z,100718.69
2024-01-25T05:12:33.924Z,100692.97
2024-01-25T05:13:05.965Z,100705.59
2024-01-25T05:13:38.002Z,100707.47
2024-01-25T05:14:09.987Z,100712.00
2024-01-25T05:14:42.074Z,100679.38
2024-01-25T05:15:14.105Z,100703.47
2024-01-25T05:15:46.163Z,100715.94
2024-01-25T05:16:18.260Z,100691.72
2024-01-25T05:16:50.272Z,100696.66
2024-01-25T05:17:26.248Z,100711.47
2024-01-25T05:17:58.383Z,100688.25
2024-01-25T05:18:30.607Z,100702.75
2024-01-25T05:19:02.946Z,100683.13
2024-01-25T05:19:35.233Z,100700.84
2024-01-25T05:20:08.541Z,100711.16
2024-01-25T05:20:40.811Z,100696.34
2024-01-25T05:21:12.926Z,100684.16
2024-01-25T05:21:45.030Z,100706.41
2024-01-25T05:22:18.167Z,100694.97
2024-01-25T05:22:50.256Z,100713.09
2024-01-25T05:23:22.365Z,100700.44
2024-01-25T05:23:54.523Z,100698.34
2024-01-25T05:24:29.392Z,100707.16
2024-01-25T05:25:02.989Z,100719.63
2024-01-25T05:25:35.088Z,100718.03
2024-01-25T05:26:08.590Z,100713.88
2024-01-25T05:26:40.732Z,100715.31
2024-01-25T05:27:12.893Z,100707.25
2024-01-25T05:27:45.000Z,100705.47
2024-01-25T05:28:17.268Z,100697.69
2024-01-25T05:28:49.316Z,100715.22
2024-01-25T05:29:21.637Z,100709.16
2024-01-25T05:29:53.793Z,100714.56
2024-01-25T05:30:26.650Z,100705.91
2024-01-25T05:30:58.692Z,100708.72
2024-01-25T05:31:30.926Z,100707.88
2024-01-25T05:32:03.279Z,100711.34
2024-01-25T05:32:35.566Z,100711.88
2024-01-25T05:33:08.134Z,100717.19
2024-01-25T05:33:40.541Z,100706.22
2024-01-25T05:34:12.865Z,100693.81
2024-01-25T05:34:45.173Z,100741.13
2024-01-25T05:35:18.570Z,100677.53
2024-01-25T05:35:51.510Z,100708.91
2024-01-25T05:36:24.025Z,100708.28
2024-01-25T05:36:56.241Z,100700.75
2024-01-25T05:37:28.437Z,100707.88
2024-01-25T05:38:00.497Z,100716.78
2024-01-25T05:38:32.629Z,100716.56
2024-01-25T05:39:04.763Z,100690.34
2024-01-25T05:39:36.852Z,100708.84
2024-01-25T05:40:11.371Z,100707.25
2024-01-25T05:40:43.440Z,100704.53
2024-01-25T05:41:15.573Z,100711.31
2024-01-25T05:41:47.746Z,100715.84
2024-01-25T05:42:19.778Z,100712.59
2024-01-25T05:42:51.923Z,100700.31
2024-01-25T05:43:24.239Z,100700.22
2024-01-25T05:43:56.271Z,100699.38
2024-01-25T05:44:28.420Z,100694.03
2024-01-25T05:45:00.540Z,100711.88
2024-01-25T05:45:32.733Z,100698.66
2024-01-25T05:46:05.542Z,100708.41
2024-01-25T05:46:37.768Z,100700.53
2024-01-25T05:47:09.819Z,100708.84
2024-01-25T05:47:42.043Z,100700.22
2024-01-25T05:48:14.162Z,100714.72
2024-01-25T05:48:46.329Z,100706.31
2024-01-25T05:49:18.643Z,100709.25
2024-01-25T05:49:50.866Z,100703.28
2024-01-25T05:50:23.320Z,100702.84
2024-01-25T05:50:55.423Z,100708.31
2024-01-25T05:51:27.403Z,100715.84
2024-01-25T05:51:59.514Z,100712.59
2024-01-25T05:52:32.249Z,100721.81
2024-01-25T05:53:04.254Z,100727.28
2024-01-25T05:53:36.358Z,100709.34
2024-01-25T05:54:08.439Z,100701.28
2024-01-25T05:54:40.522Z,100723.28
2024-01-25T05:55:14.034Z,100720.78
2024-01-25T05:55:46.095Z,100729.69
2024-01-25T05:56:18.173Z,100726.53
2024-01-25T05:56:50.536Z,100732.22
2024-01-25T05:57:23.637Z,100717.31
2024-01-25T05:57:56.107Z,100716.16
2024-01-25T05:58:28.385Z,100709.56
2024-01-25T05:59:00.480Z,100710.94
2024-01-25T05:59:32.634Z,100721.72
2024-01-25T06:00:05.591Z,100716.91
2024-01-25T06:00:37.730Z,100725.50
2024-01-25T06:01:10.157Z,100715.22
2024-01-25T06:01:42.619Z,100734.63
2024-01-25T06:02:15.365Z,100720.03
2024-01-25T06:02:47.409Z,100708.63
2024-01-25T06:03:19.574Z,100711.03
2024-01-25T06:03:51.840Z,100721.81
2024-01-25T06:04:24.218Z,100711.25
2024-01-25T06:04:56.630Z,100724.44
2024-01-25T06:05:29.018Z,100727.28
2024-01-25T06:06:01.427Z,100720.97
2024-01-25T06:06:33.677Z,100735.28
2024-01-25T06:07:06.075Z,100716.25
2024-01-25T06:07:38.557Z,100716.06
2024-01-25T06:08:10.909Z,100728.44
2024-01-25T06:08:47.314Z,100732.66
2024-01-25T06:09:24.552Z,100720.34
2024-01-25T06:09:57.044Z,100732.84
2024-01-25T06:10:30.476Z,100732.00
2024-01-25T06:11:02.616Z,100736.44
2024-01-25T06:11:34.632Z,100734.63